Cote-Saint-Luc, Canada
Current Conditions -  °F | °C
As of 6:00 PM on Tuesday 25 Nov 2014 (Local Time) from CYUL Reporting Station
Broken Clouds Broken Clouds  
Wind Chill: 31°   Ceiling: 5000
Heat Index: 41°   Visibility: 15mi
Dew Point: 30°   Wind: 24mph
Humidity: 65%   Direction: 240°WSW
Pressure: 29.91"   Gusts: 37mph
Location:  45.45°N, 73.67°W
Report Text: CYUL 252300Z 24021G32KT 15SM FEW040 BKN050 05/M01 A2991 RMK SC2SC5 SLP129
Loading
Personal Weather Stations






























Interactive Weather Map New forecast layout! Learn more

10-Day Weather Forecast

Advertisements
Track Severe Weather on mobile